createdAt,value
2023-03-24T00:00:48.902Z,4.05
2023-03-24T00:03:17.418Z,5.93
2023-03-24T00:05:44.933Z,4.53
2023-03-24T00:08:11.456Z,5.05
2023-03-24T00:10:37.965Z,5.60
2023-03-24T00:13:04.601Z,4.85
2023-03-24T00:15:31.452Z,3.90
2023-03-24T00:17:58.407Z,4.18
2023-03-24T00:20:26.389Z,4.70
2023-03-24T00:22:58.603Z,5.15
2023-03-24T00:25:28.542Z,4.47
2023-03-24T00:27:56.433Z,3.25
2023-03-24T00:30:25.043Z,3.42
2023-03-24T00:32:52.082Z,4.28
2023-03-24T00:35:18.689Z,5.75
2023-03-24T00:37:45.808Z,3.05
2023-03-24T00:40:16.327Z,4.60
2023-03-24T00:42:47.729Z,2.42
2023-03-24T00:45:18.236Z,3.00
2023-03-24T00:47:45.018Z,5.50
2023-03-24T00:50:17.377Z,2.80
2023-03-24T00:52:48.287Z,3.90
2023-03-24T00:55:16.350Z,3.53
2023-03-24T00:57:50.151Z,4.22
2023-03-24T01:00:24.185Z,2.90
2023-03-24T01:02:56.281Z,3.83
2023-03-24T01:05:25.617Z,3.25
2023-03-24T01:07:52.247Z,3.63
2023-03-24T01:10:26.043Z,3.45
2023-03-24T01:12:55.425Z,3.28
2023-03-24T01:15:24.622Z,3.75
2023-03-24T01:17:53.107Z,3.60
2023-03-24T01:20:22.943Z,3.70
2023-03-24T01:22:50.732Z,3.15
2023-03-24T01:25:22.845Z,3.53
2023-03-24T01:27:50.683Z,5.63
2023-03-24T01:30:19.426Z,3.83
2023-03-24T01:32:46.016Z,3.47
2023-03-24T01:35:13.036Z,3.45
2023-03-24T01:37:41.197Z,3.45
2023-03-24T01:40:10.059Z,2.72
2023-03-24T01:42:38.304Z,4.53
2023-03-24T01:45:43.682Z,4.70
2023-03-24T01:48:18.514Z,2.80
2023-03-24T01:50:48.952Z,3.17
2023-03-24T01:53:15.607Z,3.17
2023-03-24T01:55:43.252Z,3.58
2023-03-24T01:58:10.283Z,3.30
2023-03-24T02:00:48.279Z,3.97
2023-03-24T02:03:47.837Z,3.38
2023-03-24T02:06:16.060Z,3.38
2023-03-24T02:09:04.306Z,3.10
2023-03-24T02:11:56.215Z,3.10
2023-03-24T02:14:23.040Z,3.10
2023-03-24T02:17:36.308Z,2.95
2023-03-24T02:20:15.038Z,2.60
2023-03-24T02:23:01.609Z,5.28
2023-03-24T02:25:47.914Z,5.07
2023-03-24T02:28:39.800Z,6.10
2023-03-24T02:31:16.237Z,4.65
2023-03-24T02:34:11.270Z,4.25
2023-03-24T02:37:02.902Z,4.43
2023-03-24T02:39:47.444Z,4.15
2023-03-24T02:42:30.059Z,4.10
2023-03-24T02:45:35.389Z,4.53
2023-03-24T02:48:11.811Z,4.15
2023-03-24T02:50:52.358Z,5.47
2023-03-24T02:54:07.723Z,3.70
2023-03-24T02:57:01.960Z,5.45
2023-03-24T03:00:00.907Z,4.80
2023-03-24T03:02:55.731Z,3.83
2023-03-24T03:05:28.422Z,3.53
2023-03-24T03:07:58.009Z,4.38
2023-03-24T03:10:29.874Z,4.43
2023-03-24T03:12:59.329Z,5.72
2023-03-24T03:15:33.848Z,5.25
2023-03-24T03:18:34.090Z,6.65
2023-03-24T03:21:05.151Z,4.80
2023-03-24T03:23:49.120Z,4.25
2023-03-24T03:26:17.402Z,3.78
2023-03-24T03:28:49.905Z,4.30
2023-03-24T03:31:21.713Z,4.55
2023-03-24T03:33:58.824Z,5.28
2023-03-24T03:36:42.316Z,4.25
2023-03-24T03:39:28.580Z,4.60
2023-03-24T03:41:57.572Z,5.68
2023-03-24T03:44:25.300Z,5.05
2023-03-24T03:46:52.603Z,4.18
2023-03-24T03:49:27.732Z,4.35
2023-03-24T03:51:55.837Z,6.40
2023-03-24T03:54:23.455Z,4.40
2023-03-24T03:56:50.421Z,5.70
2023-03-24T03:59:35.503Z,4.15
2023-03-24T04:02:42.277Z,3.78
2023-03-24T04:05:19.793Z,5.38
2023-03-24T04:08:06.312Z,5.90
2023-03-24T04:11:06.478Z,4.05
2023-03-24T04:14:06.613Z,5.68
2023-03-24T04:16:59.162Z,6.32
2023-03-24T04:19:37.190Z,5.63
2023-03-24T04:22:17.511Z,7.60
2023-03-24T04:24:56.490Z,5.03
2023-03-24T04:27:38.844Z,4.68
2023-03-24T04:30:23.603Z,5.78
2023-03-24T04:32:59.328Z,4.53
2023-03-24T04:35:33.216Z,5.45
2023-03-24T04:38:23.205Z,6.38
2023-03-24T04:40:57.600Z,6.25
2023-03-24T04:43:27.876Z,6.25
2023-03-24T04:45:57.698Z,6.13
2023-03-24T04:48:31.552Z,5.88
2023-03-24T04:51:11.103Z,4.20
2023-03-24T04:54:03.802Z,6.50
2023-03-24T04:56:46.032Z,5.55
2023-03-24T04:59:30.824Z,9.10
2023-03-24T05:01:58.073Z,8.05
2023-03-24T05:04:57.020Z,5.53
2023-03-24T05:07:32.917Z,8.63
2023-03-24T05:10:02.416Z,5.75
2023-03-24T05:12:32.130Z,5.65
2023-03-24T05:15:17.214Z,5.65
2023-03-24T05:17:46.202Z,5.50
2023-03-24T05:20:13.014Z,6.05
2023-03-24T05:22:42.674Z,5.45
2023-03-24T05:25:09.542Z,5.38
2023-03-24T05:27:36.207Z,5.50
2023-03-24T05:30:15.488Z,5.13
2023-03-24T05:32:43.001Z,5.72
2023-03-24T05:35:10.367Z,6.15
2023-03-24T05:37:36.916Z,6.55
2023-03-24T05:40:03.982Z,5.90
2023-03-24T05:42:40.463Z,8.63
2023-03-24T05:45:09.609Z,4.93
2023-03-24T05:47:36.820Z,5.40
2023-03-24T05:50:04.392Z,6.28
2023-03-24T05:52:31.936Z,6.40
2023-03-24T05:55:12.164Z,5.90
2023-03-24T05:57:39.537Z,6.88
2023-03-24T06:00:24.879Z,6.43
2023-03-24T06:02:58.321Z,5.18
2023-03-24T06:05:29.786Z,5.82
2023-03-24T06:07:58.758Z,7.30
2023-03-24T06:10:28.099Z,5.80
2023-03-24T06:12:55.802Z,5.78
2023-03-24T06:15:28.122Z,4.70
2023-03-24T06:18:01.128Z,7.32
2023-03-24T06:20:34.515Z,4.32
2023-03-24T06:23:10.496Z,5.28
2023-03-24T06:25:52.530Z,4.50
2023-03-24T06:28:26.054Z,4.53
2023-03-24T06:30:53.450Z,4.53
2023-03-24T06:33:25.931Z,4.78
2023-03-24T06:35:54.018Z,6.47
2023-03-24T06:38:20.645Z,5.05
2023-03-24T06:40:47.250Z,5.13
2023-03-24T06:43:14.502Z,6.72
2023-03-24T06:48:17.643Z,7.60
2023-03-24T06:50:44.487Z,5.20
2023-03-24T06:53:11.277Z,4.75
2023-03-24T06:55:38.565Z,6.53
2023-03-24T06:58:05.678Z,5.80
2023-03-24T07:00:32.182Z,4.63
2023-03-24T07:03:18.855Z,5.13
2023-03-24T07:06:02.552Z,5.55
2023-03-24T07:08:38.134Z,4.70
2023-03-24T07:11:08.914Z,4.53
2023-03-24T07:13:38.283Z,4.93
2023-03-24T07:16:05.421Z,6.05
2023-03-24T07:18:33.621Z,4.75
2023-03-24T07:21:04.337Z,6.85
2023-03-24T07:23:32.579Z,4.88
2023-03-24T07:26:20.670Z,4.90
2023-03-24T07:28:47.590Z,4.85
2023-03-24T07:31:37.778Z,5.45
2023-03-24T07:34:07.602Z,5.30
2023-03-24T07:36:36.404Z,5.07
2023-03-24T07:39:05.254Z,8.20
2023-03-24T07:41:34.589Z,4.22
2023-03-24T07:44:05.992Z,5.18
2023-03-24T07:46:36.635Z,4.00
2023-03-24T07:49:18.254Z,5.20
2023-03-24T07:51:50.465Z,5.68
2023-03-24T07:54:23.496Z,4.97
2023-03-24T07:56:51.632Z,5.03
2023-03-24T07:59:18.695Z,4.70
2023-03-24T08:01:55.395Z,5.97
2023-03-24T08:04:42.924Z,6.22
2023-03-24T08:07:40.291Z,5.22
2023-03-24T08:10:10.943Z,6.03
2023-03-24T08:12:37.469Z,5.93
2023-03-24T08:15:05.087Z,5.53
2023-03-24T08:17:32.359Z,5.95
2023-03-24T08:20:01.345Z,6.35
2023-03-24T08:22:29.226Z,5.70
2023-03-24T08:24:55.730Z,5.25
2023-03-24T08:27:23.533Z,5.22
2023-03-24T08:29:50.049Z,8.45
2023-03-24T08:32:16.571Z,6.95
2023-03-24T08:34:43.045Z,6.82
2023-03-24T08:37:09.659Z,5.68
2023-03-24T08:39:36.200Z,5.40
2023-03-24T08:42:02.902Z,4.75
2023-03-24T08:44:31.102Z,5.45
2023-03-24T08:47:01.023Z,5.68
2023-03-24T08:49:27.634Z,4.97
2023-03-24T08:51:54.177Z,5.32
2023-03-24T08:54:23.507Z,6.45
2023-03-24T08:56:51.135Z,6.32
2023-03-24T08:59:18.114Z,5.50
2023-03-24T09:01:45.081Z,5.57
2023-03-24T09:04:11.896Z,6.82
2023-03-24T09:06:38.513Z,6.53
2023-03-24T09:09:05.183Z,5.65
2023-03-24T09:11:31.810Z,4.47
2023-03-24T09:13:58.380Z,6.13
2023-03-24T09:16:24.978Z,5.75
2023-03-24T09:18:51.645Z,5.28
2023-03-24T09:21:18.190Z,5.93
2023-03-24T09:23:44.937Z,5.35
2023-03-24T09:26:11.705Z,6.03
2023-03-24T09:28:38.253Z,5.47
2023-03-24T09:31:06.168Z,6.18
2023-03-24T09:33:34.960Z,5.28
2023-03-24T09:36:02.784Z,5.93
2023-03-24T09:38:30.492Z,5.32
2023-03-24T09:41:01.512Z,3.55
2023-03-24T09:43:41.864Z,4.85
2023-03-24T09:46:14.598Z,5.93
2023-03-24T09:48:49.552Z,5.25
2023-03-24T09:51:23.760Z,5.68
2023-03-24T09:54:05.167Z,3.92
2023-03-24T09:56:32.781Z,5.07
2023-03-24T09:59:07.380Z,3.75
2023-03-24T10:01:36.125Z,3.75
2023-03-24T10:04:03.591Z,3.83
2023-03-24T10:06:31.994Z,3.70
2023-03-24T10:09:24.545Z,4.18
2023-03-24T10:11:50.956Z,3.40
2023-03-24T10:14:54.776Z,4.43
2023-03-24T10:17:40.157Z,4.38
2023-03-24T10:20:28.139Z,4.60
2023-03-24T10:23:07.910Z,4.82
2023-03-24T10:25:47.158Z,3.75
2023-03-24T10:28:24.071Z,5.10
2023-03-24T10:30:51.437Z,3.22
2023-03-24T10:33:18.849Z,3.17
2023-03-24T10:36:10.991Z,3.78
2023-03-24T10:38:37.737Z,4.93
2023-03-24T10:41:04.478Z,4.13
2023-03-24T10:43:32.184Z,3.38
2023-03-24T10:45:59.689Z,3.95
2023-03-24T10:48:42.811Z,3.55
2023-03-24T10:51:27.050Z,3.50
2023-03-24T10:54:22.264Z,4.70
2023-03-24T10:56:51.494Z,3.33
2023-03-24T10:59:21.760Z,4.68
2023-03-24T11:01:48.354Z,5.53
2023-03-24T11:04:17.442Z,3.58
2023-03-24T11:07:15.133Z,3.08
2023-03-24T11:09:43.562Z,3.50
2023-03-24T11:12:21.656Z,4.22
2023-03-24T11:14:48.165Z,3.53
2023-03-24T11:17:16.019Z,2.60
2023-03-24T11:19:54.355Z,4.05
2023-03-24T11:22:21.456Z,4.28
2023-03-24T11:24:52.511Z,2.92
2023-03-24T11:27:19.506Z,3.67
2023-03-24T11:29:50.167Z,2.58
2023-03-24T11:32:25.647Z,3.72
2023-03-24T11:35:18.546Z,3.88
2023-03-24T11:37:45.830Z,3.05
2023-03-24T11:40:12.300Z,2.95
2023-03-24T11:42:45.941Z,2.45
2023-03-24T11:45:38.289Z,3.78
2023-03-24T11:48:12.433Z,2.30
2023-03-24T11:50:39.491Z,2.83
2023-03-24T11:53:17.353Z,2.38
2023-03-24T11:56:05.668Z,2.58
2023-03-24T11:58:50.330Z,3.15
2023-03-24T12:01:28.661Z,2.47
2023-03-24T12:04:15.799Z,2.50
2023-03-24T12:07:07.836Z,2.20
2023-03-24T12:09:51.688Z,3.25
2023-03-24T12:12:27.671Z,5.43
2023-03-24T12:15:26.739Z,2.53
2023-03-24T12:18:18.239Z,3.33
2023-03-24T12:21:12.605Z,2.67
2023-03-24T12:23:55.043Z,2.60
2023-03-24T12:26:28.225Z,4.00
2023-03-24T12:29:17.515Z,2.25
2023-03-24T12:32:11.329Z,2.67
2023-03-24T12:35:15.517Z,3.08
2023-03-24T12:37:52.198Z,2.78
2023-03-24T12:40:46.942Z,2.22
2023-03-24T12:43:20.018Z,2.90
2023-03-24T12:45:54.541Z,3.00
2023-03-24T12:48:53.378Z,3.08
2023-03-24T12:51:31.391Z,2.70
2023-03-24T12:54:30.008Z,3.75
2023-03-24T12:57:02.278Z,3.50
2023-03-24T12:59:51.470Z,3.35
2023-03-24T13:02:31.577Z,2.33
2023-03-24T13:05:05.473Z,2.43
2023-03-24T13:07:39.054Z,3.15
2023-03-24T13:10:13.607Z,3.03
2023-03-24T13:12:52.485Z,2.03
2023-03-24T13:15:31.197Z,4.10
2023-03-24T13:18:10.062Z,3.05
2023-03-24T13:20:40.670Z,2.33
2023-03-24T13:23:22.362Z,3.22
2023-03-24T13:25:54.918Z,4.80
2023-03-24T13:28:27.970Z,2.80
2023-03-24T13:30:54.854Z,3.30
2023-03-24T13:33:28.120Z,2.95
2023-03-24T13:36:08.364Z,4.32
2023-03-24T13:38:46.116Z,4.00
2023-03-24T13:41:24.641Z,3.50
2023-03-24T13:43:58.476Z,2.55
2023-03-24T13:46:25.292Z,2.95
2023-03-24T13:48:55.389Z,2.90
2023-03-24T13:51:31.756Z,3.53
2023-03-24T13:54:03.364Z,2.75
2023-03-24T13:56:40.205Z,4.03
2023-03-24T13:59:28.364Z,3.33
2023-03-24T14:02:29.052Z,5.57
2023-03-24T14:05:03.094Z,3.03
2023-03-24T14:07:32.482Z,3.35
2023-03-24T14:10:16.248Z,2.33
2023-03-24T14:13:02.039Z,4.63
2023-03-24T14:15:33.393Z,3.72
2023-03-24T14:18:24.455Z,4.50
2023-03-24T14:20:57.471Z,3.70
2023-03-24T14:23:46.734Z,1.88
2023-03-24T14:26:16.165Z,3.40
2023-03-24T14:28:48.711Z,3.25
2023-03-24T14:31:18.493Z,3.85
2023-03-24T14:33:54.547Z,2.70
2023-03-24T14:36:27.151Z,3.95
2023-03-24T14:38:53.715Z,4.13
2023-03-24T14:41:31.170Z,3.65
2023-03-24T14:43:59.534Z,3.72
2023-03-24T14:46:47.542Z,4.93
2023-03-24T14:49:23.867Z,4.55
2023-03-24T14:52:02.210Z,5.38
2023-03-24T14:54:47.256Z,2.47
2023-03-24T14:57:26.566Z,5.30
2023-03-24T15:00:15.010Z,3.25
2023-03-24T15:02:58.487Z,2.25
2023-03-24T15:05:31.978Z,6.03
2023-03-24T15:08:23.858Z,5.05
2023-03-24T15:11:06.165Z,5.28
2023-03-24T15:13:42.526Z,4.32
2023-03-24T15:16:12.047Z,4.05
2023-03-24T15:19:02.068Z,6.18
2023-03-24T15:21:33.593Z,4.95
2023-03-24T15:24:01.581Z,5.80
2023-03-24T15:26:30.081Z,4.30
2023-03-24T15:29:07.042Z,6.50
2023-03-24T15:31:33.661Z,6.20
2023-03-24T15:34:28.300Z,4.97
2023-03-24T15:36:57.408Z,7.07
2023-03-24T15:39:27.841Z,5.43
2023-03-24T15:41:54.485Z,6.70
2023-03-24T15:44:25.601Z,5.60
2023-03-24T15:46:55.038Z,5.78
2023-03-24T15:49:31.766Z,4.78
2023-03-24T15:52:03.939Z,5.63
2023-03-24T15:54:36.629Z,4.03
2023-03-24T15:57:23.447Z,7.82
2023-03-24T16:00:11.918Z,8.32
2023-03-24T16:02:48.284Z,4.90
2023-03-24T16:05:22.116Z,5.57
2023-03-24T16:08:05.803Z,5.32
2023-03-24T16:10:42.839Z,6.30
2023-03-24T16:13:19.364Z,5.13
2023-03-24T16:16:22.099Z,3.20
2023-03-24T16:19:45.780Z,6.55
2023-03-24T16:22:24.477Z,5.80
2023-03-24T16:25:06.580Z,5.88
2023-03-24T16:27:59.409Z,6.47
2023-03-24T16:30:37.448Z,6.38
2023-03-24T16:33:34.095Z,5.75
2023-03-24T16:36:06.759Z,6.38
2023-03-24T16:39:34.892Z,4.30
2023-03-24T16:42:14.238Z,6.20
2023-03-24T16:44:52.450Z,6.55
2023-03-24T16:47:20.782Z,6.10
2023-03-24T16:49:49.077Z,6.35
2023-03-24T16:52:17.118Z,5.00
2023-03-24T16:54:57.958Z,8.33
2023-03-24T16:57:24.954Z,6.80
2023-03-24T17:05:54.085Z,4.22
2023-03-24T17:08:26.841Z,8.15
2023-03-24T17:11:00.041Z,6.10
2023-03-24T17:13:31.432Z,5.25
2023-03-24T17:16:13.311Z,6.67
2023-03-24T17:18:47.265Z,6.85
2023-03-24T17:21:16.185Z,5.68
2023-03-24T17:23:43.757Z,5.28
2023-03-24T17:26:10.292Z,4.70
2023-03-24T17:28:36.827Z,5.93
2023-03-24T17:31:03.418Z,6.65
2023-03-24T17:33:30.068Z,7.03
2023-03-24T17:35:56.610Z,6.63
2023-03-24T17:38:23.306Z,5.88
2023-03-24T17:40:58.925Z,5.35
2023-03-24T17:43:27.282Z,7.47
2023-03-24T17:46:01.400Z,6.15
2023-03-24T17:48:28.462Z,8.57
2023-03-24T17:50:56.937Z,8.27
2023-03-24T17:53:27.050Z,7.90
2023-03-24T17:55:58.586Z,9.25
2023-03-24T17:58:30.183Z,10.13
2023-03-24T18:00:58.299Z,9.15
2023-03-24T18:03:26.065Z,11.95
2023-03-24T18:05:52.806Z,8.55
2023-03-24T18:08:19.657Z,6.93
2023-03-24T18:10:46.258Z,11.07
2023-03-24T18:13:14.585Z,9.95
2023-03-24T18:15:43.667Z,8.93
2023-03-24T18:18:12.160Z,6.05
2023-03-24T18:20:39.432Z,8.13
2023-03-24T18:23:06.485Z,10.57
2023-03-24T18:25:33.313Z,6.82
2023-03-24T18:27:59.938Z,9.80
2023-03-24T18:30:26.581Z,8.90
2023-03-24T18:32:53.202Z,9.13
2023-03-24T18:35:20.422Z,12.10
2023-03-24T18:37:47.099Z,7.30
2023-03-24T18:40:14.858Z,8.05
2023-03-24T18:42:41.425Z,6.95
2023-03-24T18:45:08.555Z,8.38
2023-03-24T18:47:35.179Z,9.32
2023-03-24T18:50:01.977Z,7.18
2023-03-24T18:52:28.947Z,8.60
2023-03-24T18:54:59.445Z,7.03
2023-03-24T18:57:26.184Z,11.02
2023-03-24T18:59:53.254Z,7.13
2023-03-24T19:02:19.859Z,10.73
2023-03-24T19:04:48.184Z,8.02
2023-03-24T19:07:14.913Z,11.18
2023-03-24T19:09:42.338Z,10.95
2023-03-24T19:12:09.520Z,10.70
2023-03-24T19:14:36.579Z,10.68
2023-03-24T19:17:03.718Z,11.15
2023-03-24T19:19:31.701Z,8.63
2023-03-24T19:21:58.878Z,9.95
2023-03-24T19:24:26.368Z,7.88
2023-03-24T19:26:53.990Z,7.18
2023-03-24T19:29:21.503Z,6.35
2023-03-24T19:31:49.568Z,7.57
2023-03-24T19:34:16.192Z,7.03
2023-03-24T19:36:46.464Z,7.97
2023-03-24T19:39:15.071Z,8.07
2023-03-24T19:41:41.719Z,6.68
2023-03-24T19:44:08.304Z,8.60
2023-03-24T19:46:34.910Z,10.13
2023-03-24T19:49:01.527Z,11.05
2023-03-24T19:51:28.090Z,10.05
2023-03-24T19:53:55.339Z,9.52
2023-03-24T19:56:23.378Z,7.32
2023-03-24T19:58:50.422Z,9.75
2023-03-24T20:01:17.589Z,8.75
2023-03-24T20:03:44.298Z,6.57
2023-03-24T20:06:11.247Z,7.50
2023-03-24T20:08:38.355Z,13.23
2023-03-24T20:11:10.685Z,7.97
2023-03-24T20:13:38.748Z,8.48
2023-03-24T20:16:06.149Z,5.82
2023-03-24T20:18:34.352Z,5.32
2023-03-24T20:21:01.667Z,6.50
2023-03-24T20:23:28.488Z,4.35
2023-03-24T20:26:04.192Z,5.72
2023-03-24T20:28:30.801Z,7.07
2023-03-24T20:31:01.972Z,6.07
2023-03-24T20:35:58.885Z,6.88
2023-03-24T20:38:25.958Z,5.18
2023-03-24T20:41:00.381Z,6.28
2023-03-24T20:43:27.253Z,5.45
2023-03-24T20:45:58.157Z,4.47
2023-03-24T20:51:07.726Z,6.15
2023-03-24T20:53:35.685Z,18.67
2023-03-24T20:56:07.255Z,5.13
2023-03-24T20:58:35.065Z,3.83
2023-03-24T21:01:08.091Z,4.28
2023-03-24T21:03:35.096Z,6.63
2023-03-24T21:06:01.953Z,5.13
2023-03-24T21:08:28.924Z,6.25
2023-03-24T21:10:56.722Z,5.95
2023-03-24T21:13:23.687Z,5.70
2023-03-24T21:15:50.396Z,4.85
2023-03-24T21:18:17.196Z,5.35
2023-03-24T21:20:57.746Z,7.32
2023-03-24T21:23:24.811Z,5.05
2023-03-24T21:25:52.071Z,7.38
2023-03-24T21:28:18.742Z,7.55
2023-03-24T21:30:46.170Z,5.75
2023-03-24T21:33:14.615Z,4.80
2023-03-24T21:35:41.586Z,6.32
2023-03-24T21:38:09.583Z,6.15
2023-03-24T21:40:36.256Z,8.00
2023-03-24T21:43:05.631Z,6.30
2023-03-24T21:45:33.216Z,7.18
2023-03-24T21:48:00.073Z,5.30
2023-03-24T21:50:26.718Z,6.45
2023-03-24T21:52:54.774Z,5.43
2023-03-24T21:55:22.377Z,7.15
2023-03-24T21:57:50.490Z,7.03
2023-03-24T22:00:19.633Z,5.65
2023-03-24T22:02:49.683Z,7.05
2023-03-24T22:05:18.973Z,6.83
2023-03-24T22:07:46.927Z,7.43
2023-03-24T22:10:16.259Z,9.88
2023-03-24T22:12:43.948Z,9.52
2023-03-24T22:15:11.836Z,7.15
2023-03-24T22:17:38.790Z,9.80
2023-03-24T22:20:06.384Z,9.05
2023-03-24T22:22:33.689Z,7.43
2023-03-24T22:25:00.224Z,11.18
2023-03-24T22:27:26.730Z,8.63
2023-03-24T22:29:53.288Z,8.48
2023-03-24T22:32:19.873Z,6.55
2023-03-24T22:34:46.460Z,6.88
2023-03-24T22:37:12.999Z,8.10
2023-03-24T22:39:39.500Z,7.43
2023-03-24T22:42:06.004Z,10.32
2023-03-24T22:44:33.573Z,10.00
2023-03-24T22:47:02.243Z,8.32
2023-03-24T22:49:29.652Z,8.80
2023-03-24T22:51:56.246Z,8.07
2023-03-24T22:54:23.466Z,10.43
2023-03-24T22:56:50.308Z,8.32
2023-03-24T22:59:16.920Z,8.15
2023-03-24T23:01:43.478Z,7.00
2023-03-24T23:04:10.114Z,6.40
2023-03-24T23:06:36.947Z,6.50
2023-03-24T23:09:04.709Z,5.70
2023-03-24T23:11:31.964Z,6.03
2023-03-24T23:14:04.542Z,4.53
2023-03-24T23:16:33.185Z,7.15
2023-03-24T23:19:00.485Z,6.22
2023-03-24T23:21:27.616Z,8.32
2023-03-24T23:23:54.250Z,6.05
2023-03-24T23:26:25.214Z,6.80
2023-03-24T23:28:53.545Z,5.75
2023-03-24T23:31:24.774Z,6.15
2023-03-24T23:33:53.954Z,4.90
2023-03-24T23:36:20.522Z,7.20
2023-03-24T23:38:50.539Z,6.13
2023-03-24T23:41:17.868Z,5.50
2023-03-24T23:43:48.201Z,4.70
2023-03-24T23:46:14.824Z,4.35
2023-03-24T23:48:41.472Z,7.65
2023-03-24T23:51:08.008Z,4.45
2023-03-24T23:53:35.813Z,6.07
2023-03-24T23:56:07.814Z,3.60
2023-03-24T23:58:36.642Z,4.65
